Time;durP1;ratioP1;P1;durP2;ratioP2;P2;SDS_P1;SDS_P2;PMS_P1;PMS_P2;Temp;Humidity;BMP_temperature;BMP_pressure;BME280_temperature;BME280_humidity;BME280_pressure;Samples;Min_cycle;Max_cycle;Signal;HPM_P1;HPM_P2
2022/04/24 00:01:58;;;;;;;0.20;0.10;;;;;;;;;;4165214;28;20489;-36
2022/04/24 00:04:00;;;;;;;0.10;0.10;;;;;;;;;;4164997;28;20049;-36
2022/04/24 00:06:02;;;;;;;0.17;0.10;;;;;;;;;;4164239;28;20140;-36
2022/04/24 00:08:03;;;;;;;0.20;0.03;;;;;;;;;;4165456;28;20069;-36
2022/04/24 00:10:05;;;;;;;0.30;0.10;;;;;;;;;;4165433;28;20057;-36
2022/04/24 00:12:07;;;;;;;0.30;0.10;;;;;;;;;;4163927;28;20103;-36
2022/04/24 00:14:10;;;;;;;0.28;0.10;;;;;;;;;;4164959;28;20436;-36
2022/04/24 00:16:12;;;;;;;0.40;0.10;;;;;;;;;;4164967;28;20057;-36
2022/04/24 00:18:13;;;;;;;0.28;0.25;;;;;;;;;;4164565;28;20172;-36
2022/04/24 00:20:14;;;;;;;0.13;0.10;;;;;;;;;;4165209;28;20068;-36
2022/04/24 00:22:15;;;;;;;0.60;0.10;;;;;;;;;;4164960;28;20057;-36
2022/04/24 00:24:17;;;;;;;0.20;0.20;;;;;;;;;;4172868;28;20049;-36
2022/04/24 00:26:18;;;;;;;0.10;0.10;;;;;;;;;;4181332;28;20130;-36
2022/04/24 00:28:21;;;;;;;0.20;0.10;;;;;;;;;;4181525;28;20053;-36
2022/04/24 00:30:22;;;;;;;0.10;0.10;;;;;;;;;;4181496;28;20480;-36
2022/04/24 00:32:23;;;;;;;0.47;0.10;;;;;;;;;;4181336;28;20509;-36
2022/04/24 00:34:26;;;;;;;0.52;0.10;;;;;;;;;;4180853;28;20500;-36
2022/04/24 00:36:27;;;;;;;0.52;0.20;;;;;;;;;;4181183;28;20099;-36
2022/04/24 00:38:28;;;;;;;0.20;0.00;;;;;;;;;;4181039;28;20068;-36
2022/04/24 00:40:29;;;;;;;0.10;0.10;;;;;;;;;;4181450;28;20059;-36
2022/04/24 00:42:30;;;;;;;0.10;0.10;;;;;;;;;;4180777;28;20057;-36
2022/04/24 00:44:32;;;;;;;0.75;0.10;;;;;;;;;;4180833;28;20049;-36
2022/04/24 00:47:03;;;;;;;0.10;0.10;;;;;;;;;;4161660;28;20122;-36
2022/04/24 00:49:04;;;;;;;0.40;0.10;;;;;;;;;;4179415;28;20182;-36
2022/04/24 00:51:06;;;;;;;0.10;0.00;;;;;;;;;;4181291;28;20434;-36
2022/04/24 00:53:07;;;;;;;0.50;0.10;;;;;;;;;;4180835;28;20432;-36
2022/04/24 00:55:09;;;;;;;0.20;0.20;;;;;;;;;;4180763;28;20461;-36
2022/04/24 00:57:11;;;;;;;0.10;0.10;;;;;;;;;;4180964;28;20064;-36
2022/04/24 00:59:13;;;;;;;0.10;0.10;;;;;;;;;;4180712;28;20085;-36
2022/04/24 01:01:14;;;;;;;0.93;0.30;;;;;;;;;;4180617;28;20144;-36
2022/04/24 01:03:16;;;;;;;0.90;0.10;;;;;;;;;;4179106;28;20060;-36
2022/04/24 01:05:18;;;;;;;0.20;0.00;;;;;;;;;;4180939;28;20100;-36
2022/04/24 01:07:19;;;;;;;0.10;0.10;;;;;;;;;;4181047;28;20099;-36
2022/04/24 01:09:23;;;;;;;0.13;0.13;;;;;;;;;;4180684;28;20396;-36
2022/04/24 01:11:25;;;;;;;0.25;0.10;;;;;;;;;;4173378;28;20087;-36
2022/04/24 01:13:26;;;;;;;0.00;0.00;;;;;;;;;;4172674;28;20053;-36
2022/04/24 01:15:27;;;;;;;0.22;0.20;;;;;;;;;;4164381;28;20084;-36
2022/04/24 01:17:28;;;;;;;0.10;0.10;;;;;;;;;;4164189;28;20108;-36
2022/04/24 01:19:29;;;;;;;0.15;0.10;;;;;;;;;;4163939;28;20194;-36
2022/04/24 01:21:32;;;;;;;0.30;0.13;;;;;;;;;;4164049;28;20060;-36
2022/04/24 01:23:33;;;;;;;0.10;0.10;;;;;;;;;;4164109;28;20064;-36
2022/04/24 01:25:34;;;;;;;0.25;0.10;;;;;;;;;;4164223;28;20103;-36
2022/04/24 01:27:35;;;;;;;0.10;0.10;;;;;;;;;;4162498;28;20057;-36
2022/04/24 01:29:37;;;;;;;0.10;0.08;;;;;;;;;;4163808;28;20057;-36
2022/04/24 01:31:38;;;;;;;0.20;0.10;;;;;;;;;;4163958;28;20057;-36
2022/04/24 01:33:40;;;;;;;0.13;0.13;;;;;;;;;;4178575;28;20459;-36
2022/04/24 01:35:41;;;;;;;0.10;0.10;;;;;;;;;;4180279;28;20110;-36
2022/04/24 01:37:43;;;;;;;0.35;0.10;;;;;;;;;;4180193;28;20471;-36
2022/04/24 01:39:44;;;;;;;0.10;0.10;;;;;;;;;;4177500;28;20106;-36
2022/04/24 01:41:46;;;;;;;0.22;0.10;;;;;;;;;;4174466;28;20448;-36
2022/04/24 01:43:48;;;;;;;0.10;0.10;;;;;;;;;;4163509;28;20053;-36
2022/04/24 01:45:49;;;;;;;0.10;0.10;;;;;;;;;;4163922;28;20061;-36
2022/04/24 01:47:50;;;;;;;0.30;0.20;;;;;;;;;;4163161;28;20076;-36
2022/04/24 01:49:52;;;;;;;0.50;0.10;;;;;;;;;;4163944;28;20060;-36
2022/04/24 01:51:53;;;;;;;0.13;0.10;;;;;;;;;;4163704;28;20322;-36
2022/04/24 01:53:54;;;;;;;0.17;0.10;;;;;;;;;;4163223;28;20053;-36
2022/04/24 01:55:57;;;;;;;0.10;0.10;;;;;;;;;;4161480;28;20065;-36
2022/04/24 01:57:58;;;;;;;0.38;0.10;;;;;;;;;;4162071;28;20091;-36
2022/04/24 01:59:59;;;;;;;0.28;0.20;;;;;;;;;;4161955;28;20061;-36
2022/04/24 02:02:00;;;;;;;0.10;0.10;;;;;;;;;;4162460;28;20076;-36
2022/04/24 02:04:02;;;;;;;0.20;0.20;;;;;;;;;;4163128;28;20056;-36
2022/04/24 02:06:04;;;;;;;0.40;0.20;;;;;;;;;;4163427;28;20061;-35
2022/04/24 02:08:05;;;;;;;0.17;0.10;;;;;;;;;;4179450;28;20111;-36
2022/04/24 02:10:06;;;;;;;0.13;0.10;;;;;;;;;;4176218;28;20056;-35
2022/04/24 02:12:08;;;;;;;0.10;0.00;;;;;;;;;;4172194;28;20056;-36
2022/04/24 02:14:09;;;;;;;0.10;0.10;;;;;;;;;;4163059;28;20053;-36
2022/04/24 02:16:11;;;;;;;0.10;0.10;;;;;;;;;;4163234;28;20053;-35
2022/04/24 02:18:12;;;;;;;0.40;0.20;;;;;;;;;;4162679;28;20049;-36
2022/04/24 02:20:13;;;;;;;0.30;0.10;;;;;;;;;;4161940;28;20116;-36
2022/04/24 02:22:14;;;;;;;0.10;0.10;;;;;;;;;;4163296;28;20168;-36
2022/04/24 02:24:15;;;;;;;0.50;0.20;;;;;;;;;;4163218;28;20068;-36
2022/04/24 02:26:16;;;;;;;0.10;0.10;;;;;;;;;;4162866;28;20053;-36
2022/04/24 02:28:18;;;;;;;0.10;0.10;;;;;;;;;;4162835;28;20452;-36
2022/04/24 02:30:24;;;;;;;0.20;0.10;;;;;;;;;;4163349;28;20485;-35
2022/04/24 02:32:25;;;;;;;0.28;0.10;;;;;;;;;;4163317;28;20057;-36
2022/04/24 02:34:26;;;;;;;0.08;0.00;;;;;;;;;;4162681;28;20386;-36
2022/04/24 02:36:27;;;;;;;0.20;0.10;;;;;;;;;;4163404;28;20053;-35
2022/04/24 02:38:29;;;;;;;1.40;0.22;;;;;;;;;;4169334;28;20114;-36
2022/04/24 02:40:30;;;;;;;0.10;0.10;;;;;;;;;;4173822;28;20106;-36
2022/04/24 02:42:31;;;;;;;0.15;0.15;;;;;;;;;;4163054;28;20481;-36
2022/04/24 02:44:32;;;;;;;0.10;0.10;;;;;;;;;;4163029;28;20053;-36
2022/04/24 02:46:33;;;;;;;0.10;0.10;;;;;;;;;;4162804;28;20061;-36
2022/04/24 02:48:35;;;;;;;0.05;0.05;;;;;;;;;;4162511;28;20131;-38
2022/04/24 02:50:36;;;;;;;0.20;0.10;;;;;;;;;;4162880;28;20053;-36
2022/04/24 02:52:46;;;;;;;0.28;0.10;;;;;;;;;;4162616;28;20558;-37
2022/04/24 02:54:47;;;;;;;0.20;0.20;;;;;;;;;;4162562;28;20053;-36
2022/04/24 02:56:48;;;;;;;0.15;0.00;;;;;;;;;;4162722;28;20065;-36
2022/04/24 02:58:50;;;;;;;0.20;0.20;;;;;;;;;;4162543;28;20339;-36
2022/04/24 03:00:51;;;;;;;0.50;0.20;;;;;;;;;;4162615;28;20111;-36
2022/04/24 03:02:53;;;;;;;0.17;0.15;;;;;;;;;;4163404;28;20282;-36
2022/04/24 03:04:54;;;;;;;0.00;0.00;;;;;;;;;;4164621;28;20071;-36
2022/04/24 03:06:55;;;;;;;0.20;0.10;;;;;;;;;;4168755;28;20072;-36
2022/04/24 03:08:57;;;;;;;0.38;0.20;;;;;;;;;;4176957;28;20061;-36
2022/04/24 03:10:58;;;;;;;0.35;0.17;;;;;;;;;;4170194;28;20386;-37
2022/04/24 03:12:59;;;;;;;0.30;0.10;;;;;;;;;;4165996;28;20057;-36
2022/04/24 03:15:01;;;;;;;0.10;0.10;;;;;;;;;;4160593;28;20049;-36
2022/04/24 03:17:02;;;;;;;0.47;0.10;;;;;;;;;;4160632;28;20080;-36
2022/04/24 03:19:03;;;;;;;0.13;0.10;;;;;;;;;;4160502;28;20053;-36
2022/04/24 03:21:05;;;;;;;0.03;0.03;;;;;;;;;;4160825;28;20053;-36
2022/04/24 03:23:07;;;;;;;0.10;0.10;;;;;;;;;;4160338;28;20447;-36
2022/04/24 03:25:09;;;;;;;0.20;0.10;;;;;;;;;;4168247;28;20559;-36
2022/04/24 03:27:10;;;;;;;0.10;0.10;;;;;;;;;;4162572;28;20057;-36
2022/04/24 03:29:11;;;;;;;0.10;0.10;;;;;;;;;;4162327;28;20394;-36
2022/04/24 03:31:12;;;;;;;0.30;0.10;;;;;;;;;;4162406;28;20084;-36
2022/04/24 03:33:14;;;;;;;0.20;0.10;;;;;;;;;;4162054;28;20062;-36
2022/04/24 03:35:15;;;;;;;0.20;0.10;;;;;;;;;;4162731;28;20053;-36
2022/04/24 03:37:17;;;;;;;0.30;0.10;;;;;;;;;;4161808;28;20058;-36
2022/04/24 03:39:20;;;;;;;0.08;0.08;;;;;;;;;;4175494;28;20049;-36
2022/04/24 03:41:21;;;;;;;0.10;0.10;;;;;;;;;;4176739;28;20107;-36
2022/04/24 03:43:23;;;;;;;0.17;0.15;;;;;;;;;;4176776;28;20578;-36
2022/04/24 03:45:24;;;;;;;0.38;0.20;;;;;;;;;;4177131;28;20057;-35
2022/04/24 03:47:25;;;;;;;0.32;0.17;;;;;;;;;;4176578;28;20523;-36
2022/04/24 03:49:27;;;;;;;0.10;0.10;;;;;;;;;;4176125;28;20076;-36
2022/04/24 03:51:28;;;;;;;0.80;0.10;;;;;;;;;;4176711;28;20107;-36
2022/04/24 03:53:29;;;;;;;0.20;0.10;;;;;;;;;;4166364;28;20455;-36
2022/04/24 03:55:30;;;;;;;0.13;0.10;;;;;;;;;;4162159;28;20053;-36
2022/04/24 03:57:31;;;;;;;0.10;0.10;;;;;;;;;;4161109;28;20057;-36
2022/04/24 03:59:33;;;;;;;0.03;0.03;;;;;;;;;;4166601;28;20080;-36
2022/04/24 04:01:35;;;;;;;0.13;0.10;;;;;;;;;;4169667;28;20110;-36
2022/04/24 04:03:36;;;;;;;0.28;0.20;;;;;;;;;;4161616;28;20103;-36
2022/04/24 04:05:38;;;;;;;0.00;0.00;;;;;;;;;;4162307;28;20099;-36
2022/04/24 04:07:39;;;;;;;0.10;0.10;;;;;;;;;;4162013;28;20056;-36
2022/04/24 04:09:40;;;;;;;0.10;0.10;;;;;;;;;;4162173;28;20058;-36
2022/04/24 04:11:42;;;;;;;0.08;0.08;;;;;;;;;;4161158;28;20058;-36
2022/04/24 04:13:43;;;;;;;0.47;0.20;;;;;;;;;;4162249;28;20136;-36
2022/04/24 04:15:44;;;;;;;0.38;0.10;;;;;;;;;;4162064;28;20409;-36
2022/04/24 04:17:46;;;;;;;0.20;0.10;;;;;;;;;;4160670;28;20049;-36
2022/04/24 04:19:47;;;;;;;0.30;0.10;;;;;;;;;;4163721;28;20053;-36
2022/04/24 04:21:48;;;;;;;0.10;0.10;;;;;;;;;;4165212;28;20119;-36
2022/04/24 04:23:49;;;;;;;0.10;0.10;;;;;;;;;;4163593;28;20119;-36
2022/04/24 04:25:51;;;;;;;0.10;0.10;;;;;;;;;;4164955;28;20057;-36
2022/04/24 04:27:55;;;;;;;0.32;0.25;;;;;;;;;;4163448;28;20053;-36
2022/04/24 04:29:56;;;;;;;0.32;0.20;;;;;;;;;;4172990;28;20053;-36
2022/04/24 04:31:57;;;;;;;0.40;0.20;;;;;;;;;;4168876;28;20053;-36
2022/04/24 04:33:58;;;;;;;0.20;0.10;;;;;;;;;;4179527;28;20570;-36
2022/04/24 04:35:59;;;;;;;0.20;0.20;;;;;;;;;;4181334;28;20118;-36
2022/04/24 04:38:01;;;;;;;0.43;0.13;;;;;;;;;;4181249;28;20057;-36
2022/04/24 04:40:03;;;;;;;0.10;0.08;;;;;;;;;;4181110;28;20052;-36
2022/04/24 04:42:06;;;;;;;0.00;0.00;;;;;;;;;;4181264;28;20500;-36
2022/04/24 04:44:07;;;;;;;0.10;0.10;;;;;;;;;;4180943;28;20099;-36
2022/04/24 04:46:08;;;;;;;0.15;0.15;;;;;;;;;;4179914;28;20123;-35
2022/04/24 04:48:09;;;;;;;0.30;0.10;;;;;;;;;;4179563;28;20052;-36
2022/04/24 04:50:10;;;;;;;0.32;0.17;;;;;;;;;;4181302;28;20056;-36
2022/04/24 04:52:12;;;;;;;0.10;0.10;;;;;;;;;;4173209;28;20520;-36
2022/04/24 04:54:13;;;;;;;0.10;0.10;;;;;;;;;;4164450;28;20057;-36
2022/04/24 04:56:15;;;;;;;0.10;0.10;;;;;;;;;;4164707;28;20103;-36
2022/04/24 04:58:16;;;;;;;0.20;0.10;;;;;;;;;;4164168;28;20057;-36
2022/04/24 05:00:18;;;;;;;0.30;0.15;;;;;;;;;;4171819;28;20464;-36
2022/04/24 05:02:19;;;;;;;0.10;0.10;;;;;;;;;;4179269;28;20435;-36
2022/04/24 05:04:21;;;;;;;0.13;0.13;;;;;;;;;;4180194;28;20053;-36
2022/04/24 05:06:22;;;;;;;0.20;0.10;;;;;;;;;;4180837;28;20057;-36
2022/04/24 05:08:23;;;;;;;0.10;0.03;;;;;;;;;;4180731;28;20056;-36
2022/04/24 05:10:24;;;;;;;0.15;0.10;;;;;;;;;;4180746;28;20452;-36
2022/04/24 05:12:27;;;;;;;0.00;0.00;;;;;;;;;;4181052;28;20057;-36
2022/04/24 05:14:29;;;;;;;0.65;0.25;;;;;;;;;;4180542;28;20122;-36
2022/04/24 05:16:30;;;;;;;0.20;0.20;;;;;;;;;;4180500;28;20079;-36
2022/04/24 05:18:31;;;;;;;0.10;0.10;;;;;;;;;;4180129;28;20110;-36
2022/04/24 05:20:33;;;;;;;0.20;0.20;;;;;;;;;;4180794;28;20060;-36
2022/04/24 05:22:34;;;;;;;0.30;0.13;;;;;;;;;;4180349;28;20056;-36
2022/04/24 05:24:35;;;;;;;0.20;0.20;;;;;;;;;;4180422;28;20099;-36
2022/04/24 05:26:36;;;;;;;0.10;0.10;;;;;;;;;;4180357;28;20078;-35
2022/04/24 05:28:38;;;;;;;0.15;0.13;;;;;;;;;;4180081;28;20061;-36
2022/04/24 05:30:39;;;;;;;0.00;0.00;;;;;;;;;;4179332;28;20049;-36
2022/04/24 05:32:42;;;;;;;0.45;0.30;;;;;;;;;;4179852;28;20053;-36
2022/04/24 05:34:43;;;;;;;0.13;0.10;;;;;;;;;;4180519;28;20441;-36
2022/04/24 05:36:44;;;;;;;0.10;0.10;;;;;;;;;;4180288;28;20082;-36
2022/04/24 05:38:46;;;;;;;0.10;0.10;;;;;;;;;;4179888;28;20106;-36
2022/04/24 05:40:47;;;;;;;0.10;0.10;;;;;;;;;;4173571;28;20112;-36
2022/04/24 05:42:55;;;;;;;0.10;0.00;;;;;;;;;;4171296;28;20053;-36
2022/04/24 05:45:04;;;;;;;0.03;0.03;;;;;;;;;;4163660;28;20461;-36
2022/04/24 05:47:06;;;;;;;0.00;0.00;;;;;;;;;;4163629;28;20148;-36
2022/04/24 05:49:07;;;;;;;0.15;0.10;;;;;;;;;;4163015;28;20059;-36
2022/04/24 05:51:08;;;;;;;0.10;0.10;;;;;;;;;;4163590;28;20049;-36
2022/04/24 05:53:09;;;;;;;0.10;0.10;;;;;;;;;;4146107;28;20080;-36
2022/04/24 05:55:11;;;;;;;0.10;0.10;;;;;;;;;;4163498;28;20053;-36
2022/04/24 05:57:12;;;;;;;0.10;0.10;;;;;;;;;;4163795;28;20123;-36
2022/04/24 05:59:13;;;;;;;0.10;0.10;;;;;;;;;;4163221;28;20057;-36
2022/04/24 06:01:15;;;;;;;0.30;0.10;;;;;;;;;;4163228;28;20057;-36
2022/04/24 06:03:16;;;;;;;0.10;0.10;;;;;;;;;;4162872;28;20313;-36
2022/04/24 06:05:17;;;;;;;0.20;0.15;;;;;;;;;;4163456;28;20099;-36
2022/04/24 06:07:18;;;;;;;0.25;0.10;;;;;;;;;;4163394;28;20101;-36
2022/04/24 06:09:19;;;;;;;0.28;0.20;;;;;;;;;;4163369;28;20053;-36
2022/04/24 06:11:21;;;;;;;0.10;0.10;;;;;;;;;;4163290;28;20060;-36
2022/04/24 06:13:22;;;;;;;0.00;0.00;;;;;;;;;;4163358;28;20053;-36
2022/04/24 06:15:25;;;;;;;0.17;0.15;;;;;;;;;;4163202;28;20053;-36
2022/04/24 06:17:26;;;;;;;0.35;0.20;;;;;;;;;;4163199;28;20053;-36
2022/04/24 06:19:28;;;;;;;0.25;0.13;;;;;;;;;;4162549;28;20570;-36
2022/04/24 06:21:29;;;;;;;0.10;0.10;;;;;;;;;;4163111;28;20053;-36
2022/04/24 06:23:31;;;;;;;0.25;0.10;;;;;;;;;;4164005;28;20061;-36
2022/04/24 06:25:34;;;;;;;0.10;0.10;;;;;;;;;;4180029;28;20103;-36
2022/04/24 06:27:35;;;;;;;0.10;0.10;;;;;;;;;;4179434;28;20068;-36
2022/04/24 06:29:36;;;;;;;0.30;0.20;;;;;;;;;;4178105;28;20543;-36
2022/04/24 06:31:37;;;;;;;0.22;0.10;;;;;;;;;;4179637;28;20060;-36
2022/04/24 06:33:38;;;;;;;0.10;0.10;;;;;;;;;;4177490;28;20053;-36
2022/04/24 06:35:40;;;;;;;0.57;0.10;;;;;;;;;;4179466;28;20585;-36
2022/04/24 06:37:42;;;;;;;0.13;0.10;;;;;;;;;;4179277;28;20507;-36
2022/04/24 06:39:43;;;;;;;1.45;0.10;;;;;;;;;;4179319;28;20060;-36
2022/04/24 06:41:45;;;;;;;0.43;0.38;;;;;;;;;;4178784;28;20488;-36
2022/04/24 06:43:47;;;;;;;0.20;0.15;;;;;;;;;;4177931;28;20425;-36
2022/04/24 06:45:48;;;;;;;0.10;0.10;;;;;;;;;;4179217;28;20102;-36
2022/04/24 06:47:49;;;;;;;0.00;0.00;;;;;;;;;;4178587;28;20563;-36
2022/04/24 06:49:50;;;;;;;0.10;0.10;;;;;;;;;;4179259;28;20106;-36
2022/04/24 06:51:51;;;;;;;0.10;0.10;;;;;;;;;;4179441;28;20107;-36
2022/04/24 06:53:52;;;;;;;0.30;0.17;;;;;;;;;;4179176;28;20083;-36
2022/04/24 06:55:54;;;;;;;0.30;0.10;;;;;;;;;;4179174;28;20449;-36
2022/04/24 06:57:56;;;;;;;0.30;0.20;;;;;;;;;;4179328;28;20057;-36
2022/04/24 06:59:57;;;;;;;0.17;0.10;;;;;;;;;;4178977;28;20052;-36
2022/04/24 07:01:58;;;;;;;0.10;0.10;;;;;;;;;;4178988;28;20485;-36
2022/04/24 07:03:59;;;;;;;0.22;0.20;;;;;;;;;;4178453;28;20064;-36
2022/04/24 07:06:00;;;;;;;0.00;0.00;;;;;;;;;;4178912;28;20319;-36
2022/04/24 07:08:02;;;;;;;0.22;0.20;;;;;;;;;;4178865;28;20079;-36
2022/04/24 07:10:03;;;;;;;0.52;0.10;;;;;;;;;;4179208;28;20067;-36
2022/04/24 07:12:05;;;;;;;0.20;0.10;;;;;;;;;;4179276;28;20198;-36
2022/04/24 07:14:06;;;;;;;0.20;0.10;;;;;;;;;;4178898;28;20550;-36
2022/04/24 07:16:08;;;;;;;0.68;0.10;;;;;;;;;;4178940;28;20430;-36
2022/04/24 07:18:10;;;;;;;0.20;0.10;;;;;;;;;;4178398;28;20057;-36
2022/04/24 07:20:14;;;;;;;0.10;0.10;;;;;;;;;;4177525;28;20095;-36
2022/04/24 07:22:18;;;;;;;0.85;0.10;;;;;;;;;;4178900;28;20076;-36
2022/04/24 07:24:19;;;;;;;0.03;0.03;;;;;;;;;;4179032;28;20122;-36
2022/04/24 07:26:20;;;;;;;0.25;0.20;;;;;;;;;;4179071;28;20492;-36
2022/04/24 07:28:22;;;;;;;0.20;0.10;;;;;;;;;;4179161;28;20053;-36
2022/04/24 07:30:24;;;;;;;0.40;0.10;;;;;;;;;;4179110;28;20106;-36
2022/04/24 07:32:25;;;;;;;0.10;0.10;;;;;;;;;;4178660;28;20061;-36
2022/04/24 07:34:27;;;;;;;0.10;0.10;;;;;;;;;;4178396;28;20049;-36
2022/04/24 07:36:28;;;;;;;0.10;0.10;;;;;;;;;;4178969;28;20546;-36
2022/04/24 07:38:29;;;;;;;0.17;0.10;;;;;;;;;;4178599;28;20102;-36
2022/04/24 07:40:33;;;;;;;0.20;0.10;;;;;;;;;;4178751;28;20131;-36
2022/04/24 07:42:53;;;;;;;0.10;0.10;;;;;;;;;;4178716;28;20057;-36
2022/04/24 07:44:54;;;;;;;0.25;0.17;;;;;;;;;;4178586;28;20057;-36
2022/04/24 07:46:55;;;;;;;0.10;0.10;;;;;;;;;;4179031;28;20056;-36
2022/04/24 07:48:56;;;;;;;0.10;0.10;;;;;;;;;;4178082;28;20428;-37
2022/04/24 07:50:57;;;;;;;0.30;0.10;;;;;;;;;;4178696;28;20065;-36
2022/04/24 07:52:59;;;;;;;0.20;0.10;;;;;;;;;;4179316;28;20064;-36
2022/04/24 07:55:00;;;;;;;0.20;0.20;;;;;;;;;;4181956;28;20053;-36
2022/04/24 07:57:01;;;;;;;0.10;0.10;;;;;;;;;;4181869;28;20075;-36
2022/04/24 07:59:02;;;;;;;0.20;0.20;;;;;;;;;;4179188;28;20072;-36
2022/04/24 08:01:04;;;;;;;0.40;0.10;;;;;;;;;;4179549;28;20114;-36
2022/04/24 08:03:10;;;;;;;0.10;0.10;;;;;;;;;;4177896;28;20095;-36
2022/04/24 08:05:11;;;;;;;0.52;0.20;;;;;;;;;;4179660;28;20072;-36
2022/04/24 08:07:12;;;;;;;0.20;0.10;;;;;;;;;;4180195;28;20110;-36
2022/04/24 08:09:13;;;;;;;1.58;0.10;;;;;;;;;;4179526;28;20287;-36
2022/04/24 08:11:14;;;;;;;0.13;0.10;;;;;;;;;;4179472;28;20452;-36
2022/04/24 08:13:16;;;;;;;0.35;0.10;;;;;;;;;;4178316;28;20106;-36
2022/04/24 08:15:17;;;;;;;0.28;0.20;;;;;;;;;;4179713;28;20488;-36
2022/04/24 08:17:18;;;;;;;0.15;0.15;;;;;;;;;;4179632;28;20060;-36
2022/04/24 08:19:21;;;;;;;1.40;0.10;;;;;;;;;;4179026;28;20066;-36
2022/04/24 08:21:22;;;;;;;0.75;0.38;;;;;;;;;;4179805;28;20057;-36
2022/04/24 08:23:25;;;;;;;0.17;0.10;;;;;;;;;;4179005;28;20061;-36
2022/04/24 08:25:27;;;;;;;0.10;0.10;;;;;;;;;;4178180;28;20535;-36
2022/04/24 08:27:28;;;;;;;0.10;0.10;;;;;;;;;;4179654;28;20068;-36
2022/04/24 08:29:29;;;;;;;0.55;0.20;;;;;;;;;;4179355;28;20049;-36
2022/04/24 08:31:30;;;;;;;0.20;0.10;;;;;;;;;;4179497;28;20060;-36
2022/04/24 08:33:31;;;;;;;0.73;0.10;;;;;;;;;;4178853;28;20057;-36
2022/04/24 08:35:33;;;;;;;0.88;0.15;;;;;;;;;;4179170;28;20053;-35
2022/04/24 08:37:34;;;;;;;0.10;0.10;;;;;;;;;;4179172;28;20465;-36
2022/04/24 08:39:36;;;;;;;0.38;0.10;;;;;;;;;;4161479;28;20104;-36
2022/04/24 08:41:40;;;;;;;0.10;0.10;;;;;;;;;;4162744;28;20057;-36
2022/04/24 08:43:41;;;;;;;0.20;0.15;;;;;;;;;;4162435;28;20057;-36
2022/04/24 08:45:42;;;;;;;0.55;0.20;;;;;;;;;;4162631;28;20464;-36
2022/04/24 08:47:44;;;;;;;0.10;0.10;;;;;;;;;;4163369;28;20401;-36
2022/04/24 08:49:46;;;;;;;0.28;0.10;;;;;;;;;;4164838;28;20045;-36
2022/04/24 08:51:47;;;;;;;0.10;0.10;;;;;;;;;;4164536;28;20053;-36
2022/04/24 08:53:48;;;;;;;0.22;0.10;;;;;;;;;;4164456;28;20045;-36
2022/04/24 08:55:50;;;;;;;0.10;0.10;;;;;;;;;;4163260;28;20050;-36
2022/04/24 08:57:51;;;;;;;0.10;0.10;;;;;;;;;;4164557;28;20473;-36
2022/04/24 08:59:56;;;;;;;0.30;0.10;;;;;;;;;;4164369;28;20390;-36
2022/04/24 09:02:00;;;;;;;0.10;0.10;;;;;;;;;;4164357;28;20111;-36
2022/04/24 09:04:01;;;;;;;0.00;0.00;;;;;;;;;;4163566;28;20053;-36
2022/04/24 09:06:02;;;;;;;1.35;0.20;;;;;;;;;;4164495;28;20485;-36
2022/04/24 09:08:04;;;;;;;0.03;0.03;;;;;;;;;;4164475;28;20060;-36
2022/04/24 09:10:11;;;;;;;0.63;0.20;;;;;;;;;;4162960;28;20190;-36
2022/04/24 09:12:26;;;;;;;0.28;0.10;;;;;;;;;;4164310;28;20057;-36
2022/04/24 09:14:30;;;;;;;0.20;0.20;;;;;;;;;;4164169;28;20045;-36
2022/04/24 09:16:35;;;;;;;0.20;0.10;;;;;;;;;;4164226;28;20054;-36
2022/04/24 09:18:38;;;;;;;0.13;0.10;;;;;;;;;;4163951;28;20049;-36
2022/04/24 09:20:42;;;;;;;0.13;0.08;;;;;;;;;;4163990;28;20053;-36
2022/04/24 09:22:43;;;;;;;0.47;0.40;;;;;;;;;;4162930;28;20096;-36
2022/04/24 09:24:46;;;;;;;0.47;0.22;;;;;;;;;;4173643;28;20083;-36
2022/04/24 09:26:52;;;;;;;0.30;0.10;;;;;;;;;;4179179;28;20048;-36
2022/04/24 09:28:53;;;;;;;0.73;0.10;;;;;;;;;;4180605;28;20053;-36
2022/04/24 09:30:54;;;;;;;0.10;0.10;;;;;;;;;;4180574;28;20524;-36
2022/04/24 09:32:56;;;;;;;0.63;0.13;;;;;;;;;;4179846;28;20099;-36
2022/04/24 09:34:58;;;;;;;0.20;0.10;;;;;;;;;;4180421;28;20049;-36
2022/04/24 09:37:02;;;;;;;1.17;0.30;;;;;;;;;;4179269;28;20053;-36
2022/04/24 09:39:03;;;;;;;0.30;0.20;;;;;;;;;;4178946;28;20142;-45
2022/04/24 09:41:22;;;;;;;0.20;0.10;;;;;;;;;;4180140;28;20322;-36
2022/04/24 09:43:24;;;;;;;0.10;0.10;;;;;;;;;;4180082;28;20052;-36
2022/04/24 09:45:25;;;;;;;0.10;0.10;;;;;;;;;;4180429;28;20064;-36
2022/04/24 09:47:27;;;;;;;0.52;0.20;;;;;;;;;;4180026;28;20056;-36
2022/04/24 09:49:29;;;;;;;0.15;0.13;;;;;;;;;;4179680;28;20484;-36
2022/04/24 09:51:32;;;;;;;0.73;0.20;;;;;;;;;;4180122;28;20048;-36
2022/04/24 09:53:36;;;;;;;0.65;0.38;;;;;;;;;;4178581;28;20060;-37
2022/04/24 09:55:39;;;;;;;0.10;0.10;;;;;;;;;;4178664;28;20095;-36
2022/04/24 09:57:54;;;;;;;0.52;0.20;;;;;;;;;;4179880;28;20061;-36
2022/04/24 09:59:55;;;;;;;1.20;0.10;;;;;;;;;;4180105;28;20186;-36
2022/04/24 10:01:56;;;;;;;0.50;0.10;;;;;;;;;;4179973;28;20130;-36
2022/04/24 10:03:58;;;;;;;0.80;0.20;;;;;;;;;;4161703;28;20056;-36
2022/04/24 10:06:01;;;;;;;0.50;0.10;;;;;;;;;;4179916;28;20202;-36
2022/04/24 10:08:02;;;;;;;0.38;0.20;;;;;;;;;;4178585;28;20477;-36
2022/04/24 10:10:05;;;;;;;0.60;0.20;;;;;;;;;;4179698;28;20519;-36
2022/04/24 10:12:18;;;;;;;0.35;0.25;;;;;;;;;;4179985;28;20118;-36
2022/04/24 10:14:19;;;;;;;0.10;0.10;;;;;;;;;;4178250;28;20087;-36
2022/04/24 10:16:48;;;;;;;0.45;0.20;;;;;;;;;;4177583;28;20052;-36
2022/04/24 10:18:58;;;;;;;0.40;0.20;;;;;;;;;;4161442;28;20595;-36
2022/04/24 10:21:18;;;;;;;;;;;;;;;;;;4178946;28;20119;-36
2022/04/24 10:23:29;;;;;;;0.25;0.10;;;;;;;;;;4179647;28;19920;-36
2022/04/24 10:25:42;;;;;;;0.55;0.10;;;;;;;;;;4179757;28;20048;-36
2022/04/24 10:27:46;;;;;;;1.40;0.10;;;;;;;;;;4179644;28;20110;-36
2022/04/24 10:29:49;;;;;;;0.13;0.10;;;;;;;;;;4179819;28;20102;-36
2022/04/24 10:31:50;;;;;;;0.20;0.20;;;;;;;;;;4178105;28;20049;-36
2022/04/24 10:33:54;;;;;;;0.10;0.10;;;;;;;;;;4178979;28;20106;-36
2022/04/24 10:35:59;;;;;;;0.57;0.10;;;;;;;;;;4178294;28;20052;-36
2022/04/24 10:38:07;;;;;;;0.85;0.20;;;;;;;;;;4179345;28;20397;-36
2022/04/24 10:40:17;;;;;;;0.40;0.20;;;;;;;;;;4179572;28;20060;-36
2022/04/24 10:42:29;;;;;;;0.10;0.10;;;;;;;;;;4178351;28;20048;-36
2022/04/24 10:44:32;;;;;;;0.13;0.10;;;;;;;;;;4179113;28;20056;-36
2022/04/24 10:46:33;;;;;;;1.48;0.17;;;;;;;;;;4179297;28;20519;-36
2022/04/24 10:48:34;;;;;;;1.35;0.20;;;;;;;;;;4178845;28;20388;-36
2022/04/24 10:50:46;;;;;;;1.33;0.17;;;;;;;;;;4179110;28;20057;-36
2022/04/24 10:52:49;;;;;;;0.57;0.30;;;;;;;;;;4179115;28;20053;-36
2022/04/24 10:54:52;;;;;;;0.47;0.20;;;;;;;;;;4179059;28;20098;-36
2022/04/24 10:56:53;;;;;;;1.73;0.20;;;;;;;;;;4179529;28;20061;-36
2022/04/24 10:59:15;;;;;;;0.13;0.10;;;;;;;;;;4179024;28;20110;-36
2022/04/24 11:01:17;;;;;;;0.30;0.15;;;;;;;;;;4179113;28;20082;-36
2022/04/24 11:03:19;;;;;;;0.70;0.20;;;;;;;;;;4178653;28;20064;-37
2022/04/24 11:05:22;;;;;;;1.17;0.20;;;;;;;;;;4177781;28;20045;-36
2022/04/24 11:07:23;;;;;;;0.17;0.10;;;;;;;;;;4179061;28;20095;-36
2022/04/24 11:09:29;;;;;;;0.70;0.10;;;;;;;;;;4178988;28;20518;-36
2022/04/24 11:11:33;;;;;;;1.05;0.10;;;;;;;;;;4179110;28;20049;-36
2022/04/24 11:13:36;;;;;;;0.35;0.20;;;;;;;;;;4178997;28;20067;-36
2022/04/24 11:15:45;;;;;;;0.43;0.10;;;;;;;;;;4179198;28;20045;-36
2022/04/24 11:17:46;;;;;;;0.20;0.17;;;;;;;;;;4178675;28;20057;-36
2022/04/24 11:19:47;;;;;;;0.10;0.10;;;;;;;;;;4179062;28;20056;-36
2022/04/24 11:21:57;;;;;;;0.30;0.20;;;;;;;;;;4179002;28;20098;-36
2022/04/24 11:23:59;;;;;;;0.50;0.10;;;;;;;;;;4178833;28;20520;-36
2022/04/24 11:26:02;;;;;;;0.95;0.28;;;;;;;;;;4179004;28;20128;-36
2022/04/24 11:28:04;;;;;;;0.50;0.10;;;;;;;;;;4181154;28;20438;-36
2022/04/24 11:30:16;;;;;;;0.93;0.10;;;;;;;;;;4182152;28;20286;-36
2022/04/24 11:32:18;;;;;;;0.40;0.30;;;;;;;;;;4182493;28;20065;-36
2022/04/24 11:34:21;;;;;;;0.32;0.20;;;;;;;;;;4182035;28;20087;-36
2022/04/24 11:36:25;;;;;;;0.60;0.10;;;;;;;;;;4182569;28;20110;-36
2022/04/24 11:38:29;;;;;;;1.02;0.25;;;;;;;;;;4182213;28;20122;-36
2022/04/24 11:40:33;;;;;;;1.80;0.28;;;;;;;;;;4182064;28;20053;-36
2022/04/24 11:42:34;;;;;;;0.52;0.20;;;;;;;;;;4182079;28;20464;-36
2022/04/24 11:51:38;;;;;;;0.17;0.13;;;;;;;;;;4181935;28;20554;-36
2022/04/24 11:53:39;;;;;;;0.38;0.10;;;;;;;;;;4180442;28;20417;-36
2022/04/24 11:58:02;;;;;;;0.43;0.10;;;;;;;;;;4181765;28;20443;-36
2022/04/24 12:00:08;;;;;;;0.10;0.10;;;;;;;;;;4181655;28;20746;-36
2022/04/24 12:02:13;;;;;;;0.68;0.38;;;;;;;;;;4181923;28;20098;-36
2022/04/24 12:04:21;;;;;;;0.20;0.10;;;;;;;;;;4181597;28;20049;-36
2022/04/24 12:06:30;;;;;;;1.48;0.20;;;;;;;;;;4181783;28;20056;-36
2022/04/24 12:08:43;;;;;;;0.25;0.10;;;;;;;;;;4181688;28;20437;-36
2022/04/24 12:10:44;;;;;;;0.32;0.20;;;;;;;;;;4181733;28;20454;-36
2022/04/24 12:12:48;;;;;;;2.20;0.40;;;;;;;;;;4181570;28;20073;-36
2022/04/24 12:14:51;;;;;;;2.55;0.20;;;;;;;;;;4181678;28;20198;-36
2022/04/24 12:16:55;;;;;;;0.80;0.20;;;;;;;;;;4181844;28;20053;-36
2022/04/24 12:18:57;;;;;;;1.30;0.20;;;;;;;;;;4179973;28;20079;-36
2022/04/24 12:20:58;;;;;;;0.70;0.20;;;;;;;;;;4181695;28;20063;-36
2022/04/24 12:23:09;;;;;;;0.10;0.10;;;;;;;;;;4181453;28;20428;-37
2022/04/24 12:25:12;;;;;;;0.35;0.25;;;;;;;;;;4181453;28;20049;-36